sensor_id;sensor_type;location;lat;lon;timestamp;pressure;altitude;pressure_sealevel;temperature;humidity
25238;BME280;13185;50.872;5.306;2022-08-20T00:01:21;101244.34;;;20.25;100.00
25238;BME280;13185;50.872;5.306;2022-08-20T00:03:47;101240.50;;;20.17;100.00
25238;BME280;13185;50.872;5.306;2022-08-20T00:06:16;101239.63;;;20.17;100.00
25238;BME280;13185;50.872;5.306;2022-08-20T00:08:43;101241.50;;;20.16;100.00
25238;BME280;13185;50.872;5.306;2022-08-20T00:11:12;101235.38;;;20.14;100.00
25238;BME280;13185;50.872;5.306;2022-08-20T00:13:42;101231.94;;;20.12;100.00
25238;BME280;13185;50.872;5.306;2022-08-20T00:16:09;101240.22;;;20.11;100.00
25238;BME280;13185;50.872;5.306;2022-08-20T00:18:35;101230.81;;;20.05;100.00
25238;BME280;13185;50.872;5.306;2022-08-20T00:21:10;101235.41;;;20.05;100.00
25238;BME280;13185;50.872;5.306;2022-08-20T00:23:38;101234.56;;;20.04;100.00
25238;BME280;13185;50.872;5.306;2022-08-20T00:26:05;101233.28;;;19.99;100.00
25238;BME280;13185;50.872;5.306;2022-08-20T00:28:30;101239.19;;;19.94;100.00
25238;BME280;13185;50.872;5.306;2022-08-20T00:30:56;101238.34;;;19.94;100.00
25238;BME280;13185;50.872;5.306;2022-08-20T00:33:23;101245.22;;;19.88;100.00
25238;BME280;13185;50.872;5.306;2022-08-20T00:35:51;101233.66;;;19.86;100.00
25238;BME280;13185;50.872;5.306;2022-08-20T00:38:18;101237.53;;;19.83;100.00
25238;BME280;13185;50.872;5.306;2022-08-20T00:40:47;101239.56;;;19.81;100.00
25238;BME280;13185;50.872;5.306;2022-08-20T00:45:54;101248.84;;;19.79;100.00
25238;BME280;13185;50.872;5.306;2022-08-20T00:48:21;101245.44;;;19.77;100.00
25238;BME280;13185;50.872;5.306;2022-08-20T00:50:47;101251.47;;;19.71;100.00
25238;BME280;13185;50.872;5.306;2022-08-20T00:53:12;101252.22;;;19.63;100.00
25238;BME280;13185;50.872;5.306;2022-08-20T00:55:39;101255.78;;;19.64;100.00
25238;BME280;13185;50.872;5.306;2022-08-20T00:58:07;101252.53;;;19.60;100.00
25238;BME280;13185;50.872;5.306;2022-08-20T01:00:43;101247.50;;;19.55;100.00
25238;BME280;13185;50.872;5.306;2022-08-20T01:03:12;101252.22;;;19.53;100.00
25238;BME280;13185;50.872;5.306;2022-08-20T01:05:44;101247.94;;;19.51;100.00
25238;BME280;13185;50.872;5.306;2022-08-20T01:08:11;101247.78;;;19.52;100.00
25238;BME280;13185;50.872;5.306;2022-08-20T01:10:40;101246.06;;;19.51;100.00
25238;BME280;13185;50.872;5.306;2022-08-20T01:13:11;101246.94;;;19.52;100.00
25238;BME280;13185;50.872;5.306;2022-08-20T01:15:41;101249.66;;;19.52;100.00
25238;BME280;13185;50.872;5.306;2022-08-20T01:18:11;101253.22;;;19.52;100.00
25238;BME280;13185;50.872;5.306;2022-08-20T01:20:45;101252.66;;;19.49;100.00
25238;BME280;13185;50.872;5.306;2022-08-20T01:26:13;101255.38;;;19.49;100.00
25238;BME280;13185;50.872;5.306;2022-08-20T01:31:07;101249.66;;;19.52;100.00
25238;BME280;13185;50.872;5.306;2022-08-20T01:33:33;101250.66;;;19.51;100.00
25238;BME280;13185;50.872;5.306;2022-08-20T01:35:59;101256.28;;;19.40;100.00
25238;BME280;13185;50.872;5.306;2022-08-20T01:38:26;101238.09;;;19.30;100.00
25238;BME280;13185;50.872;5.306;2022-08-20T01:43:20;101237.53;;;19.27;100.00
25238;BME280;13185;50.872;5.306;2022-08-20T01:45:45;101251.84;;;19.29;100.00
25238;BME280;13185;50.872;5.306;2022-08-20T01:48:12;101261.03;;;19.28;100.00
25238;BME280;13185;50.872;5.306;2022-08-20T01:50:40;101255.59;;;19.28;100.00
25238;BME280;13185;50.872;5.306;2022-08-20T01:53:16;101256.44;;;19.28;100.00
25238;BME280;13185;50.872;5.306;2022-08-20T01:55:42;101256.44;;;19.28;100.00
25238;BME280;13185;50.872;5.306;2022-08-20T01:58:08;101264.00;;;19.25;100.00
25238;BME280;13185;50.872;5.306;2022-08-20T02:00:34;101257.00;;;19.22;100.00
25238;BME280;13185;50.872;5.306;2022-08-20T02:03:00;101255.59;;;19.18;100.00
25238;BME280;13185;50.872;5.306;2022-08-20T02:05:29;101253.59;;;19.11;100.00
25238;BME280;13185;50.872;5.306;2022-08-20T02:07:55;101261.03;;;19.09;100.00
25238;BME280;13185;50.872;5.306;2022-08-20T02:10:21;101263.91;;;19.07;100.00
25238;BME280;13185;50.872;5.306;2022-08-20T02:12:48;101266.75;;;19.06;100.00
25238;BME280;13185;50.872;5.306;2022-08-20T02:15:13;101257.19;;;19.01;100.00
25238;BME280;13185;50.872;5.306;2022-08-20T02:17:39;101258.19;;;19.00;100.00
25238;BME280;13185;50.872;5.306;2022-08-20T02:20:15;101262.16;;;18.96;100.00
25238;BME280;13185;50.872;5.306;2022-08-20T02:22:54;101257.75;;;18.95;100.00
25238;BME280;13185;50.872;5.306;2022-08-20T02:25:23;101259.34;;;18.98;100.00
25238;BME280;13185;50.872;5.306;2022-08-20T02:27:52;101269.63;;;18.94;100.00
25238;BME280;13185;50.872;5.306;2022-08-20T02:30:21;101260.19;;;18.89;100.00
25238;BME280;13185;50.872;5.306;2022-08-20T02:32:47;101260.34;;;18.87;100.00
25238;BME280;13185;50.872;5.306;2022-08-20T02:35:13;101266.19;;;18.83;100.00
25238;BME280;13185;50.872;5.306;2022-08-20T02:37:41;101270.22;;;18.79;100.00
25238;BME280;13185;50.872;5.306;2022-08-20T02:40:09;101266.78;;;18.67;100.00
25238;BME280;13185;50.872;5.306;2022-08-20T02:42:35;101273.88;;;18.58;100.00
25238;BME280;13185;50.872;5.306;2022-08-20T02:45:05;101269.44;;;18.57;100.00
25238;BME280;13185;50.872;5.306;2022-08-20T02:47:31;101263.88;;;18.59;100.00
25238;BME280;13185;50.872;5.306;2022-08-20T02:49:56;101271.16;;;18.58;100.00
25238;BME280;13185;50.872;5.306;2022-08-20T02:52:24;101271.44;;;18.55;100.00
25238;BME280;13185;50.872;5.306;2022-08-20T02:54:50;101268.13;;;18.52;100.00
25238;BME280;13185;50.872;5.306;2022-08-20T02:57:18;101274.56;;;18.51;100.00
25238;BME280;13185;50.872;5.306;2022-08-20T02:59:48;101281.53;;;18.43;100.00
25238;BME280;13185;50.872;5.306;2022-08-20T03:02:16;101273.69;;;18.40;100.00
25238;BME280;13185;50.872;5.306;2022-08-20T03:04:42;101274.13;;;18.36;100.00
25238;BME280;13185;50.872;5.306;2022-08-20T03:07:08;101273.25;;;18.35;100.00
25238;BME280;13185;50.872;5.306;2022-08-20T03:09:37;101277.69;;;18.36;100.00
25238;BME280;13185;50.872;5.306;2022-08-20T03:12:03;101275.84;;;18.37;100.00
25238;BME280;13185;50.872;5.306;2022-08-20T03:14:29;101280.56;;;18.35;100.00
25238;BME280;13185;50.872;5.306;2022-08-20T03:16:55;101288.09;;;18.31;100.00
25238;BME280;13185;50.872;5.306;2022-08-20T03:19:20;101281.81;;;18.31;100.00
25238;BME280;13185;50.872;5.306;2022-08-20T03:21:47;101279.38;;;18.28;100.00
25238;BME280;13185;50.872;5.306;2022-08-20T03:24:12;101282.50;;;18.23;100.00
25238;BME280;13185;50.872;5.306;2022-08-20T03:26:38;101273.63;;;18.21;100.00
25238;BME280;13185;50.872;5.306;2022-08-20T03:29:03;101279.34;;;18.18;100.00
25238;BME280;13185;50.872;5.306;2022-08-20T03:31:29;101281.50;;;18.14;100.00
25238;BME280;13185;50.872;5.306;2022-08-20T03:33:55;101286.59;;;18.08;100.00
25238;BME280;13185;50.872;5.306;2022-08-20T03:36:21;101290.28;;;17.97;100.00
25238;BME280;13185;50.872;5.306;2022-08-20T03:38:48;101296.00;;;17.94;100.00
25238;BME280;13185;50.872;5.306;2022-08-20T03:41:13;101294.53;;;17.90;100.00
25238;BME280;13185;50.872;5.306;2022-08-20T03:43:39;101301.22;;;17.86;100.00
25238;BME280;13185;50.872;5.306;2022-08-20T03:46:06;101307.91;;;17.82;100.00
25238;BME280;13185;50.872;5.306;2022-08-20T03:48:32;101308.19;;;17.79;100.00
25238;BME280;13185;50.872;5.306;2022-08-20T03:50:57;101299.59;;;17.74;100.00
25238;BME280;13185;50.872;5.306;2022-08-20T03:53:25;101308.97;;;17.70;100.00
25238;BME280;13185;50.872;5.306;2022-08-20T03:55:56;101308.22;;;17.68;100.00
25238;BME280;13185;50.872;5.306;2022-08-20T03:58:27;101311.38;;;17.63;100.00
25238;BME280;13185;50.872;5.306;2022-08-20T04:00:53;101306.19;;;17.60;100.00
25238;BME280;13185;50.872;5.306;2022-08-20T04:03:18;101304.47;;;17.59;100.00
25238;BME280;13185;50.872;5.306;2022-08-20T04:05:45;101305.75;;;17.55;100.00
25238;BME280;13185;50.872;5.306;2022-08-20T04:08:16;101313.16;;;17.53;100.00
25238;BME280;13185;50.872;5.306;2022-08-20T04:10:43;101300.69;;;17.50;100.00
25238;BME280;13185;50.872;5.306;2022-08-20T04:13:09;101304.31;;;17.51;100.00
25238;BME280;13185;50.872;5.306;2022-08-20T04:15:35;101315.38;;;17.48;100.00
25238;BME280;13185;50.872;5.306;2022-08-20T04:18:04;101312.09;;;17.44;100.00
25238;BME280;13185;50.872;5.306;2022-08-20T04:20:32;101308.53;;;17.44;100.00
25238;BME280;13185;50.872;5.306;2022-08-20T04:22:59;101308.66;;;17.42;100.00
25238;BME280;13185;50.872;5.306;2022-08-20T04:25:24;101313.75;;;17.36;100.00
25238;BME280;13185;50.872;5.306;2022-08-20T04:27:50;101305.88;;;17.33;100.00
25238;BME280;13185;50.872;5.306;2022-08-20T04:30:18;101311.22;;;17.23;100.00
25238;BME280;13185;50.872;5.306;2022-08-20T04:32:44;101310.50;;;17.21;100.00
25238;BME280;13185;50.872;5.306;2022-08-20T04:35:12;101319.50;;;17.21;100.00
25238;BME280;13185;50.872;5.306;2022-08-20T04:37:40;101323.31;;;17.19;100.00
25238;BME280;13185;50.872;5.306;2022-08-20T04:40:09;101327.00;;;17.18;100.00
25238;BME280;13185;50.872;5.306;2022-08-20T04:42:53;101320.88;;;17.16;100.00
25238;BME280;13185;50.872;5.306;2022-08-20T04:45:19;101330.72;;;17.17;100.00
25238;BME280;13185;50.872;5.306;2022-08-20T04:47:47;101329.84;;;17.16;100.00
25238;BME280;13185;50.872;5.306;2022-08-20T04:50:14;101328.41;;;17.12;100.00
25238;BME280;13185;50.872;5.306;2022-08-20T04:52:40;101336.69;;;17.11;100.00
25238;BME280;13185;50.872;5.306;2022-08-20T04:55:06;101345.66;;;17.11;100.00
25238;BME280;13185;50.872;5.306;2022-08-20T04:57:33;101350.94;;;17.13;100.00
25238;BME280;13185;50.872;5.306;2022-08-20T05:00:10;101351.81;;;17.13;100.00
25238;BME280;13185;50.872;5.306;2022-08-20T05:02:37;101358.22;;;17.12;100.00
25238;BME280;13185;50.872;5.306;2022-08-20T05:05:04;101359.09;;;17.13;100.00
25238;BME280;13185;50.872;5.306;2022-08-20T05:07:39;101358.81;;;17.16;100.00
25238;BME280;13185;50.872;5.306;2022-08-20T05:10:06;101366.22;;;17.14;100.00
25238;BME280;13185;50.872;5.306;2022-08-20T05:12:32;101371.41;;;17.06;100.00
25238;BME280;13185;50.872;5.306;2022-08-20T05:14:57;101370.44;;;17.07;100.00
25238;BME280;13185;50.872;5.306;2022-08-20T05:17:23;101376.09;;;17.03;100.00
25238;BME280;13185;50.872;5.306;2022-08-20T05:19:50;101365.53;;;17.00;100.00
25238;BME280;13185;50.872;5.306;2022-08-20T05:22:16;101367.00;;;17.05;100.00
25238;BME280;13185;50.872;5.306;2022-08-20T05:24:43;101367.00;;;17.05;100.00
25238;BME280;13185;50.872;5.306;2022-08-20T05:27:08;101367.56;;;17.08;100.00
25238;BME280;13185;50.872;5.306;2022-08-20T05:29:34;101372.75;;;17.11;100.00
25238;BME280;13185;50.872;5.306;2022-08-20T05:31:59;101364.38;;;17.14;100.00
25238;BME280;13185;50.872;5.306;2022-08-20T05:34:25;101362.78;;;17.12;100.00
25238;BME280;13185;50.872;5.306;2022-08-20T05:36:51;101369.34;;;17.09;100.00
25238;BME280;13185;50.872;5.306;2022-08-20T05:39:19;101382.88;;;17.09;100.00
25238;BME280;13185;50.872;5.306;2022-08-20T05:41:45;101375.47;;;17.11;100.00
25238;BME280;13185;50.872;5.306;2022-08-20T05:44:14;101372.50;;;17.14;100.00
25238;BME280;13185;50.872;5.306;2022-08-20T05:46:42;101384.47;;;17.12;100.00
25238;BME280;13185;50.872;5.306;2022-08-20T05:49:09;101384.84;;;17.07;100.00
25238;BME280;13185;50.872;5.306;2022-08-20T05:51:35;101391.75;;;17.11;100.00
25238;BME280;13185;50.872;5.306;2022-08-20T05:54:03;101394.19;;;17.14;100.00
25238;BME280;13185;50.872;5.306;2022-08-20T05:56:29;101389.34;;;17.18;100.00
25238;BME280;13185;50.872;5.306;2022-08-20T05:58:55;101390.22;;;17.18;100.00
25238;BME280;13185;50.872;5.306;2022-08-20T06:01:21;101390.22;;;17.18;100.00
25238;BME280;13185;50.872;5.306;2022-08-20T06:03:47;101400.06;;;17.19;100.00
25238;BME280;13185;50.872;5.306;2022-08-20T06:06:32;101388.00;;;17.23;100.00
25238;BME280;13185;50.872;5.306;2022-08-20T06:08:58;101399.69;;;17.24;100.00
25238;BME280;13185;50.872;5.306;2022-08-20T06:11:23;101390.84;;;17.22;100.00
25238;BME280;13185;50.872;5.306;2022-08-20T06:13:49;101400.69;;;17.23;100.00
25238;BME280;13185;50.872;5.306;2022-08-20T06:16:14;101399.56;;;17.25;100.00
25238;BME280;13185;50.872;5.306;2022-08-20T06:18:40;101407.31;;;17.30;100.00
25238;BME280;13185;50.872;5.306;2022-08-20T06:21:06;101403.13;;;17.26;100.00
25238;BME280;13185;50.872;5.306;2022-08-20T06:23:31;101401.28;;;17.26;100.00
25238;BME280;13185;50.872;5.306;2022-08-20T06:25:57;101393.88;;;17.28;100.00
25238;BME280;13185;50.872;5.306;2022-08-20T06:28:22;101395.47;;;17.31;100.00
25238;BME280;13185;50.872;5.306;2022-08-20T06:30:48;101398.19;;;17.31;100.00
25238;BME280;13185;50.872;5.306;2022-08-20T06:33:14;101394.09;;;17.37;100.00
25238;BME280;13185;50.872;5.306;2022-08-20T06:35:39;101395.56;;;17.41;100.00
25238;BME280;13185;50.872;5.306;2022-08-20T06:38:05;101395.88;;;17.47;100.00
25238;BME280;13185;50.872;5.306;2022-08-20T06:40:33;101394.31;;;17.45;100.00
25238;BME280;13185;50.872;5.306;2022-08-20T06:42:59;101398.22;;;17.52;100.00
25238;BME280;13185;50.872;5.306;2022-08-20T06:45:27;101394.38;;;17.54;100.00
25238;BME280;13185;50.872;5.306;2022-08-20T06:47:55;101396.22;;;17.54;100.00
25238;BME280;13185;50.872;5.306;2022-08-20T06:50:31;101404.09;;;17.57;100.00
25238;BME280;13185;50.872;5.306;2022-08-20T06:52:57;101399.22;;;17.51;100.00
25238;BME280;13185;50.872;5.306;2022-08-20T06:55:24;101396.38;;;17.52;100.00
25238;BME280;13185;50.872;5.306;2022-08-20T06:58:01;101393.38;;;17.55;100.00
25238;BME280;13185;50.872;5.306;2022-08-20T07:00:27;101402.50;;;17.54;100.00
25238;BME280;13185;50.872;5.306;2022-08-20T07:02:54;101400.78;;;17.53;100.00
25238;BME280;13185;50.872;5.306;2022-08-20T07:05:19;101401.25;;;17.58;100.00
25238;BME280;13185;50.872;5.306;2022-08-20T07:07:46;101407.53;;;17.59;100.00
25238;BME280;13185;50.872;5.306;2022-08-20T07:10:14;101411.09;;;17.59;100.00
25238;BME280;13185;50.872;5.306;2022-08-20T07:12:41;101411.22;;;17.58;100.00
25238;BME280;13185;50.872;5.306;2022-08-20T07:15:08;101420.72;;;17.64;100.00
25238;BME280;13185;50.872;5.306;2022-08-20T07:17:35;101417.25;;;17.73;100.00
25238;BME280;13185;50.872;5.306;2022-08-20T07:20:07;101414.13;;;17.77;100.00
25238;BME280;13185;50.872;5.306;2022-08-20T07:22:33;101408.28;;;17.82;100.00
25238;BME280;13185;50.872;5.306;2022-08-20T07:25:06;101416.31;;;17.83;100.00
25238;BME280;13185;50.872;5.306;2022-08-20T07:27:32;101417.19;;;17.84;100.00
25238;BME280;13185;50.872;5.306;2022-08-20T07:29:57;101422.31;;;17.87;100.00
25238;BME280;13185;50.872;5.306;2022-08-20T07:32:42;101426.47;;;17.91;100.00
25238;BME280;13185;50.872;5.306;2022-08-20T07:35:12;101437.22;;;17.93;100.00
25238;BME280;13185;50.872;5.306;2022-08-20T07:37:40;101432.91;;;17.90;100.00
25238;BME280;13185;50.872;5.306;2022-08-20T07:40:11;101434.03;;;17.87;100.00
25238;BME280;13185;50.872;5.306;2022-08-20T07:42:38;101444.63;;;17.91;100.00
25238;BME280;13185;50.872;5.306;2022-08-20T07:45:06;101445.69;;;17.99;100.00
25238;BME280;13185;50.872;5.306;2022-08-20T07:47:38;101442.97;;;17.99;100.00
25238;BME280;13185;50.872;5.306;2022-08-20T07:50:04;101449.13;;;18.01;100.00
25238;BME280;13185;50.872;5.306;2022-08-20T07:52:30;101445.16;;;18.05;100.00
25238;BME280;13185;50.872;5.306;2022-08-20T07:54:56;101447.31;;;18.11;100.00
25238;BME280;13185;50.872;5.306;2022-08-20T07:57:21;101448.06;;;18.13;100.00
25238;BME280;13185;50.872;5.306;2022-08-20T07:59:47;101447.66;;;18.18;100.00
25238;BME280;13185;50.872;5.306;2022-08-20T08:02:13;101457.00;;;18.25;100.00
25238;BME280;13185;50.872;5.306;2022-08-20T08:04:38;101457.84;;;18.26;100.00
25238;BME280;13185;50.872;5.306;2022-08-20T08:07:04;101465.88;;;18.27;100.00
25238;BME280;13185;50.872;5.306;2022-08-20T08:09:31;101476.13;;;18.24;100.00
25238;BME280;13185;50.872;5.306;2022-08-20T08:11:58;101469.09;;;18.21;100.00
25238;BME280;13185;50.872;5.306;2022-08-20T08:14:28;101475.53;;;18.20;100.00
25238;BME280;13185;50.872;5.306;2022-08-20T08:16:57;101473.44;;;18.24;100.00
25238;BME280;13185;50.872;5.306;2022-08-20T08:19:25;101463.88;;;18.29;100.00
25238;BME280;13185;50.872;5.306;2022-08-20T08:21:52;101466.91;;;18.36;100.00
25238;BME280;13185;50.872;5.306;2022-08-20T08:24:17;101465.50;;;18.41;100.00
25238;BME280;13185;50.872;5.306;2022-08-20T08:26:43;101465.34;;;18.43;100.00
25238;BME280;13185;50.872;5.306;2022-08-20T08:29:09;101464.50;;;18.42;100.00
25238;BME280;13185;50.872;5.306;2022-08-20T08:31:36;101459.81;;;18.44;100.00
25238;BME280;13185;50.872;5.306;2022-08-20T08:34:02;101464.53;;;18.52;100.00
25238;BME280;13185;50.872;5.306;2022-08-20T08:36:27;101463.72;;;18.61;100.00
25238;BME280;13185;50.872;5.306;2022-08-20T08:38:53;101468.81;;;18.66;100.00
25238;BME280;13185;50.872;5.306;2022-08-20T08:43:58;101475.09;;;18.66;100.00
25238;BME280;13185;50.872;5.306;2022-08-20T08:46:26;101477.25;;;18.72;99.87
25238;BME280;13185;50.872;5.306;2022-08-20T08:48:56;101475.72;;;18.80;99.31
25238;BME280;13185;50.872;5.306;2022-08-20T08:51:30;101481.91;;;18.91;99.12
25238;BME280;13185;50.872;5.306;2022-08-20T08:53:57;101478.78;;;19.06;98.48
25238;BME280;13185;50.872;5.306;2022-08-20T08:56:27;101473.66;;;19.12;97.86
25238;BME280;13185;50.872;5.306;2022-08-20T08:58:58;101481.53;;;19.15;97.27
25238;BME280;13185;50.872;5.306;2022-08-20T09:01:25;101476.78;;;19.17;97.32
25238;BME280;13185;50.872;5.306;2022-08-20T09:03:51;101477.41;;;19.21;96.50
25238;BME280;13185;50.872;5.306;2022-08-20T09:06:22;101478.81;;;19.15;96.41
25238;BME280;13185;50.872;5.306;2022-08-20T09:08:53;101485.41;;;19.22;96.54
25238;BME280;13185;50.872;5.306;2022-08-20T09:11:22;101487.72;;;19.37;96.41
25238;BME280;13185;50.872;5.306;2022-08-20T09:13:48;101484.84;;;19.48;96.19
25238;BME280;13185;50.872;5.306;2022-08-20T09:16:14;101485.06;;;19.56;94.54
25238;BME280;13185;50.872;5.306;2022-08-20T09:18:39;101480.47;;;19.56;94.12
25238;BME280;13185;50.872;5.306;2022-08-20T09:21:05;101481.78;;;19.62;94.29
25238;BME280;13185;50.872;5.306;2022-08-20T09:23:32;101480.47;;;19.66;94.09
25238;BME280;13185;50.872;5.306;2022-08-20T09:25:57;101471.31;;;19.77;93.75
25238;BME280;13185;50.872;5.306;2022-08-20T09:28:23;101478.91;;;19.83;93.06
25238;BME280;13185;50.872;5.306;2022-08-20T09:30:48;101481.63;;;19.83;92.18
25238;BME280;13185;50.872;5.306;2022-08-20T09:33:14;101471.59;;;19.83;92.50
25238;BME280;13185;50.872;5.306;2022-08-20T09:35:39;101473.44;;;19.93;92.48
25238;BME280;13185;50.872;5.306;2022-08-20T09:38:05;101468.56;;;20.06;92.25
25238;BME280;13185;50.872;5.306;2022-08-20T09:40:31;101472.44;;;20.03;90.95
25238;BME280;13185;50.872;5.306;2022-08-20T09:42:56;101477.59;;;19.97;90.97
25238;BME280;13185;50.872;5.306;2022-08-20T09:45:22;101469.88;;;20.02;90.72
25238;BME280;13185;50.872;5.306;2022-08-20T09:47:47;101473.00;;;20.07;90.35
25238;BME280;13185;50.872;5.306;2022-08-20T09:50:13;101473.44;;;20.12;89.91
25238;BME280;13185;50.872;5.306;2022-08-20T09:52:45;101467.50;;;20.26;89.59
25238;BME280;13185;50.872;5.306;2022-08-20T09:55:17;101465.75;;;20.44;90.13
25238;BME280;13185;50.872;5.306;2022-08-20T09:57:44;101475.16;;;20.60;88.44
25238;BME280;13185;50.872;5.306;2022-08-20T10:00:10;101477.03;;;20.59;88.12
25238;BME280;13185;50.872;5.306;2022-08-20T10:02:39;101478.59;;;20.62;86.90
25238;BME280;13185;50.872;5.306;2022-08-20T10:05:06;101469.97;;;20.66;86.73
25238;BME280;13185;50.872;5.306;2022-08-20T10:07:32;101477.97;;;20.78;86.52
25238;BME280;13185;50.872;5.306;2022-08-20T10:09:59;101472.03;;;20.82;85.96
25238;BME280;13185;50.872;5.306;2022-08-20T10:12:24;101462.22;;;20.99;86.80
25238;BME280;13185;50.872;5.306;2022-08-20T10:14:49;101470.88;;;21.12;85.46
25238;BME280;13185;50.872;5.306;2022-08-20T10:17:15;101466.06;;;21.24;84.42
25238;BME280;13185;50.872;5.306;2022-08-20T10:19:40;101472.19;;;21.36;82.91
25238;BME280;13185;50.872;5.306;2022-08-20T10:22:06;101474.78;;;21.37;81.32
25238;BME280;13185;50.872;5.306;2022-08-20T10:24:31;101477.41;;;21.29;81.71
25238;BME280;13185;50.872;5.306;2022-08-20T10:26:59;101464.63;;;21.29;80.87
25238;BME280;13185;50.872;5.306;2022-08-20T10:29:26;101473.19;;;21.35;81.22
25238;BME280;13185;50.872;5.306;2022-08-20T10:31:52;101461.06;;;21.47;81.56
25238;BME280;13185;50.872;5.306;2022-08-20T10:34:17;101469.16;;;21.56;79.60
25238;BME280;13185;50.872;5.306;2022-08-20T10:36:43;101472.28;;;21.61;78.23
25238;BME280;13185;50.872;5.306;2022-08-20T10:39:09;101478.28;;;21.65;77.75
25238;BME280;13185;50.872;5.306;2022-08-20T10:41:35;101471.97;;;21.65;78.16
25238;BME280;13185;50.872;5.306;2022-08-20T10:44:01;101465.13;;;21.60;74.68
25238;BME280;13185;50.872;5.306;2022-08-20T10:46:26;101476.88;;;21.61;75.78
25238;BME280;13185;50.872;5.306;2022-08-20T10:48:52;101472.84;;;21.47;73.84
25238;BME280;13185;50.872;5.306;2022-08-20T10:51:17;101471.31;;;21.35;74.20
25238;BME280;13185;50.872;5.306;2022-08-20T10:53:43;101465.34;;;21.31;74.86
25238;BME280;13185;50.872;5.306;2022-08-20T10:56:08;101463.06;;;21.45;74.61
25238;BME280;13185;50.872;5.306;2022-08-20T10:58:34;101470.09;;;21.65;74.38
25238;BME280;13185;50.872;5.306;2022-08-20T11:00:59;101452.75;;;21.92;74.31
25238;BME280;13185;50.872;5.306;2022-08-20T11:03:24;101460.22;;;22.08;72.91
25238;BME280;13185;50.872;5.306;2022-08-20T11:05:50;101455.78;;;22.07;71.23
25238;BME280;13185;50.872;5.306;2022-08-20T11:08:15;101457.28;;;22.01;71.51
25238;BME280;13185;50.872;5.306;2022-08-20T11:10:41;101462.50;;;21.95;71.07
25238;BME280;13185;50.872;5.306;2022-08-20T11:13:08;101455.94;;;21.87;71.18
25238;BME280;13185;50.872;5.306;2022-08-20T11:15:38;101452.00;;;21.82;71.61
25238;BME280;13185;50.872;5.306;2022-08-20T11:18:04;101454.06;;;21.88;71.97
25238;BME280;13185;50.872;5.306;2022-08-20T11:20:31;101444.88;;;21.89;72.02
25238;BME280;13185;50.872;5.306;2022-08-20T11:22:57;101436.81;;;22.05;72.51
25238;BME280;13185;50.872;5.306;2022-08-20T11:25:23;101453.00;;;22.25;72.16
25238;BME280;13185;50.872;5.306;2022-08-20T11:27:50;101440.16;;;22.43;72.10
25238;BME280;13185;50.872;5.306;2022-08-20T11:30:20;101432.19;;;22.58;69.88
25238;BME280;13185;50.872;5.306;2022-08-20T11:32:46;101437.41;;;22.77;69.97
25238;BME280;13185;50.872;5.306;2022-08-20T11:35:11;101442.97;;;22.93;67.90
25238;BME280;13185;50.872;5.306;2022-08-20T11:37:38;101436.03;;;23.15;66.75
25238;BME280;13185;50.872;5.306;2022-08-20T11:40:05;101441.88;;;23.37;65.95
25238;BME280;13185;50.872;5.306;2022-08-20T11:42:32;101439.31;;;23.51;66.40
25238;BME280;13185;50.872;5.306;2022-08-20T11:44:59;101446.50;;;23.44;65.68
25238;BME280;13185;50.872;5.306;2022-08-20T11:47:27;101438.97;;;23.30;65.83
25238;BME280;13185;50.872;5.306;2022-08-20T11:49:58;101434.00;;;23.25;66.09
25238;BME280;13185;50.872;5.306;2022-08-20T11:52:26;101448.72;;;23.24;65.33
25238;BME280;13185;50.872;5.306;2022-08-20T11:54:51;101436.19;;;23.22;65.96
25238;BME280;13185;50.872;5.306;2022-08-20T11:57:24;101441.34;;;23.33;65.24
25238;BME280;13185;50.872;5.306;2022-08-20T11:59:51;101443.06;;;23.34;63.80
25238;BME280;13185;50.872;5.306;2022-08-20T12:02:17;101438.97;;;23.30;62.47
25238;BME280;13185;50.872;5.306;2022-08-20T12:04:42;101437.22;;;23.21;61.42
25238;BME280;13185;50.872;5.306;2022-08-20T12:07:10;101437.88;;;23.07;61.70
25238;BME280;13185;50.872;5.306;2022-08-20T12:09:36;101440.41;;;23.00;61.01
25238;BME280;13185;50.872;5.306;2022-08-20T12:12:02;101435.31;;;23.05;60.60
25238;BME280;13185;50.872;5.306;2022-08-20T12:14:27;101431.03;;;23.11;58.88
25238;BME280;13185;50.872;5.306;2022-08-20T12:16:53;101429.88;;;23.21;57.79
25238;BME280;13185;50.872;5.306;2022-08-20T12:19:18;101424.63;;;23.36;57.89
25238;BME280;13185;50.872;5.306;2022-08-20T12:21:44;101431.13;;;23.51;57.89
25238;BME280;13185;50.872;5.306;2022-08-20T12:24:09;101424.66;;;23.69;58.78
25238;BME280;13185;50.872;5.306;2022-08-20T12:26:35;101426.88;;;23.89;58.61
25238;BME280;13185;50.872;5.306;2022-08-20T12:29:00;101418.81;;;24.04;56.47
25238;BME280;13185;50.872;5.306;2022-08-20T12:31:25;101439.19;;;24.02;54.83
25238;BME280;13185;50.872;5.306;2022-08-20T12:33:51;101427.38;;;23.93;54.08
25238;BME280;13185;50.872;5.306;2022-08-20T12:36:16;101426.69;;;24.07;55.80
25238;BME280;13185;50.872;5.306;2022-08-20T12:38:42;101428.22;;;24.10;54.01
25238;BME280;13185;50.872;5.306;2022-08-20T12:41:07;101428.91;;;24.04;53.95
25238;BME280;13185;50.872;5.306;2022-08-20T12:43:33;101419.31;;;24.08;53.48
25238;BME280;13185;50.872;5.306;2022-08-20T12:45:58;101428.03;;;24.11;54.78
25238;BME280;13185;50.872;5.306;2022-08-20T12:48:24;101426.69;;;23.99;52.71
25238;BME280;13185;50.872;5.306;2022-08-20T12:50:49;101421.34;;;24.14;52.21
25238;BME280;13185;50.872;5.306;2022-08-20T12:53:17;101416.00;;;24.37;50.85
25238;BME280;13185;50.872;5.306;2022-08-20T12:55:42;101417.66;;;24.62;51.16